createdAt,value
2017-07-29T07:05:16.669Z,18.50
2017-07-29T07:07:43.668Z,18.60
2017-07-29T07:10:10.669Z,18.70
2017-07-29T07:12:37.739Z,18.90
2017-07-29T07:17:46.200Z,19.10
2017-07-29T07:20:13.098Z,19.10
2017-07-29T07:22:41.480Z,19.20
2017-07-29T07:25:08.811Z,19.30
2017-07-29T07:27:35.717Z,19.30
2017-07-29T07:30:02.931Z,19.40
2017-07-29T07:32:29.735Z,19.30
2017-07-29T07:34:56.514Z,19.40
2017-07-29T07:37:23.511Z,19.50
2017-07-29T07:39:50.629Z,19.60
2017-07-29T07:42:18.330Z,19.80
2017-07-29T07:44:45.527Z,19.90
2017-07-29T07:47:12.265Z,20.10
2017-07-29T07:49:39.071Z,20.20
2017-07-29T07:52:06.078Z,20.30
2017-07-29T07:54:33.035Z,20.40
2017-07-29T07:57:00.196Z,20.40
2017-07-29T07:59:27.539Z,20.40
2017-07-29T08:01:55.047Z,20.40
2017-07-29T08:04:22.315Z,20.30
2017-07-29T08:06:49.317Z,20.40
2017-07-29T08:09:16.512Z,20.40
2017-07-29T08:11:43.830Z,20.50
2017-07-29T08:14:10.933Z,20.50
2017-07-29T08:16:37.748Z,20.70
2017-07-29T08:19:04.548Z,20.90
2017-07-29T08:21:31.599Z,21.10
2017-07-29T08:23:58.416Z,21.30
2017-07-29T08:26:26.236Z,21.70
2017-07-29T08:28:54.244Z,21.60
2017-07-29T08:31:21.052Z,21.70
2017-07-29T08:33:49.338Z,21.80
2017-07-29T08:36:16.559Z,22.00
2017-07-29T08:38:43.372Z,22.10
2017-07-29T08:41:10.416Z,22.10
2017-07-29T08:43:37.518Z,22.30
2017-07-29T08:46:04.886Z,22.40
2017-07-29T08:48:31.687Z,22.50
2017-07-29T08:50:58.897Z,22.50
2017-07-29T08:53:26.114Z,22.50
2017-07-29T08:55:53.595Z,22.50
2017-07-29T08:58:20.403Z,22.60
2017-07-29T09:00:47.145Z,22.70
2017-07-29T09:03:14.642Z,22.70
2017-07-29T09:05:42.566Z,22.70
2017-07-29T09:08:09.305Z,22.70
2017-07-29T09:10:37.596Z,22.90
2017-07-29T09:13:04.331Z,23.00
2017-07-29T09:15:31.072Z,23.10
2017-07-29T09:17:58.559Z,23.20
2017-07-29T09:20:25.288Z,23.30
2017-07-29T09:22:52.036Z,23.40
2017-07-29T09:25:18.844Z,23.50
2017-07-29T09:27:45.908Z,23.60
2017-07-29T09:30:13.390Z,23.60
2017-07-29T09:32:40.731Z,23.60
2017-07-29T09:35:08.126Z,23.60
2017-07-29T09:37:34.916Z,23.60
2017-07-29T09:40:02.140Z,23.70
2017-07-29T09:42:28.884Z,23.50
2017-07-29T09:44:58.783Z,23.50
2017-07-29T09:47:25.621Z,23.50
2017-07-29T09:49:53.427Z,23.50
2017-07-29T09:52:20.460Z,23.40
2017-07-29T09:54:48.016Z,23.10
2017-07-29T09:57:15.332Z,23.00
2017-07-29T09:59:42.776Z,22.90
2017-07-29T10:02:09.609Z,22.80
2017-07-29T10:04:36.404Z,22.80
2017-07-29T10:07:03.353Z,22.90
2017-07-29T10:09:31.514Z,23.30
2017-07-29T10:11:59.008Z,23.30
2017-07-29T10:14:25.872Z,23.50
2017-07-29T10:16:53.309Z,23.70
2017-07-29T10:19:20.095Z,23.80
2017-07-29T10:21:46.836Z,23.90
2017-07-29T10:24:13.996Z,24.20
2017-07-29T10:26:41.356Z,24.30
2017-07-29T10:29:08.760Z,24.40
2017-07-29T10:31:35.641Z,24.60
2017-07-29T10:34:03.315Z,24.80
2017-07-29T10:36:32.346Z,24.80
2017-07-29T10:38:59.280Z,24.80
2017-07-29T10:41:26.093Z,24.70
2017-07-29T10:43:52.919Z,24.80
2017-07-29T10:46:20.546Z,25.00
2017-07-29T10:48:49.044Z,25.00
2017-07-29T10:51:17.439Z,25.00
2017-07-29T10:53:48.061Z,25.00
2017-07-29T10:56:18.204Z,25.10
2017-07-29T10:58:45.022Z,25.30
2017-07-29T11:01:14.887Z,25.40
2017-07-29T11:03:43.597Z,25.60
2017-07-29T11:06:11.600Z,25.80
2017-07-29T11:08:38.422Z,25.80
2017-07-29T11:11:06.543Z,25.70
2017-07-29T11:13:33.616Z,25.80
2017-07-29T11:16:02.773Z,26.10
2017-07-29T11:18:29.785Z,26.30
2017-07-29T11:21:02.873Z,26.40
2017-07-29T11:23:31.017Z,26.50
2017-07-29T11:26:01.379Z,26.60
2017-07-29T11:28:35.837Z,26.50
2017-07-29T11:31:04.522Z,26.60
2017-07-29T11:33:31.801Z,26.70
2017-07-29T11:38:34.309Z,26.90
2017-07-29T11:41:02.900Z,26.90
2017-07-29T11:43:30.804Z,26.70
2017-07-29T11:46:01.276Z,26.70
2017-07-29T11:48:32.107Z,26.70
2017-07-29T11:50:58.942Z,26.80
2017-07-29T11:53:26.159Z,26.80
2017-07-29T11:56:00.317Z,26.80
2017-07-29T11:58:29.898Z,26.30
2017-07-29T12:00:57.052Z,26.30
2017-07-29T12:03:24.425Z,26.20
2017-07-29T12:05:52.837Z,26.20
2017-07-29T12:08:22.917Z,26.10
2017-07-29T12:10:50.093Z,26.10
2017-07-29T12:13:16.909Z,26.10
2017-07-29T12:15:45.463Z,26.10
2017-07-29T12:18:12.715Z,26.10
2017-07-29T12:20:39.473Z,26.00
2017-07-29T12:23:06.340Z,25.90
2017-07-29T12:25:33.590Z,25.90
2017-07-29T12:28:01.060Z,26.00
2017-07-29T12:30:31.977Z,26.10
2017-07-29T12:32:58.789Z,26.30
2017-07-29T12:35:26.203Z,26.40
2017-07-29T12:37:52.999Z,26.50
2017-07-29T12:40:20.688Z,26.80
2017-07-29T12:42:49.686Z,26.80
2017-07-29T12:45:16.433Z,26.80
2017-07-29T12:47:45.193Z,26.70
2017-07-29T12:50:12.552Z,26.50
2017-07-29T12:52:45.845Z,26.30
2017-07-29T12:55:12.919Z,26.30
2017-07-29T12:57:40.093Z,26.20
2017-07-29T13:00:07.332Z,26.30
2017-07-29T13:02:34.263Z,26.30
2017-07-29T13:05:04.360Z,26.40
2017-07-29T13:07:31.250Z,26.70
2017-07-29T13:09:59.120Z,26.80
2017-07-29T13:12:26.626Z,26.90
2017-07-29T13:14:55.365Z,27.00
2017-07-29T13:17:23.607Z,26.80
2017-07-29T13:19:51.613Z,26.70
2017-07-29T13:22:21.760Z,26.60
2017-07-29T13:24:48.844Z,26.60
2017-07-29T13:27:15.740Z,26.50
2017-07-29T13:29:46.311Z,26.30
2017-07-29T13:32:13.184Z,26.30
2017-07-29T13:34:41.074Z,26.30
2017-07-29T13:37:08.928Z,26.30
2017-07-29T13:39:36.899Z,26.60
2017-07-29T13:42:04.240Z,26.60
2017-07-29T13:44:32.120Z,27.00
2017-07-29T13:47:01.087Z,27.40
2017-07-29T13:49:31.737Z,27.30
2017-07-29T13:52:01.240Z,28.00
2017-07-29T13:54:28.719Z,28.30
2017-07-29T13:57:03.527Z,28.30
2017-07-29T13:59:31.143Z,28.10
2017-07-29T14:02:00.667Z,27.90
2017-07-29T14:04:28.832Z,27.40
2017-07-29T14:06:56.013Z,27.20
2017-07-29T14:09:30.143Z,27.30
2017-07-29T14:11:57.689Z,27.30
2017-07-29T14:14:26.392Z,27.60
2017-07-29T14:16:56.714Z,27.90
2017-07-29T14:21:58.939Z,28.60
2017-07-29T14:24:26.479Z,28.90
2017-07-29T14:26:57.028Z,29.10
2017-07-29T14:29:26.034Z,29.30
2017-07-29T14:31:53.835Z,29.50
2017-07-29T14:34:20.672Z,29.50
2017-07-29T14:36:47.468Z,29.60
2017-07-29T14:42:06.367Z,29.80
2017-07-29T14:44:33.300Z,29.90
2017-07-29T14:47:07.669Z,29.90
2017-07-29T14:49:34.704Z,29.90
2017-07-29T14:52:12.428Z,30.00
2017-07-29T14:54:52.414Z,30.00
2017-07-29T14:57:21.448Z,30.10
2017-07-29T14:59:56.073Z,30.00
2017-07-29T15:02:23.360Z,30.10
2017-07-29T15:04:50.161Z,30.20
2017-07-29T15:07:20.385Z,30.30
2017-07-29T15:09:48.104Z,30.30
2017-07-29T15:12:14.923Z,30.20
2017-07-29T15:14:42.211Z,30.30
2017-07-29T15:17:09.507Z,30.20
2017-07-29T15:19:36.858Z,30.20
2017-07-29T15:22:03.764Z,30.10
2017-07-29T15:24:30.580Z,30.00
2017-07-29T15:26:57.332Z,30.00
2017-07-29T15:29:24.888Z,30.20
2017-07-29T15:31:51.631Z,30.10
2017-07-29T15:34:18.374Z,30.30
2017-07-29T15:36:45.397Z,30.20
2017-07-29T15:39:12.149Z,30.00
2017-07-29T15:41:45.264Z,29.70
2017-07-29T15:44:16.195Z,29.70
2017-07-29T15:46:43.667Z,29.70
2017-07-29T15:49:10.433Z,29.70
2017-07-29T15:51:37.644Z,29.70
2017-07-29T15:54:06.078Z,29.60
2017-07-29T15:56:32.998Z,29.50
2017-07-29T15:59:00.576Z,29.50
2017-07-29T16:01:28.279Z,29.40
2017-07-29T16:03:55.120Z,29.20
2017-07-29T16:06:22.012Z,29.20
2017-07-29T16:08:49.177Z,29.10
2017-07-29T16:11:17.756Z,29.00
2017-07-29T16:13:45.536Z,28.90
2017-07-29T16:16:14.564Z,28.90
2017-07-29T16:18:43.811Z,28.80
2017-07-29T16:21:12.384Z,28.80
2017-07-29T16:23:41.694Z,28.70
2017-07-29T16:26:09.248Z,28.40
2017-07-29T16:31:09.039Z,28.40
2017-07-29T16:33:38.952Z,28.30
2017-07-29T16:38:37.861Z,28.10
2017-07-29T16:43:41.793Z,28.10
2017-07-29T16:51:13.933Z,28.20
2017-07-29T16:53:41.016Z,28.50
2017-07-29T16:56:08.376Z,29.20
2017-07-29T16:58:35.653Z,29.90
2017-07-29T17:01:03.118Z,31.10
2017-07-29T17:03:30.082Z,32.70
2017-07-29T17:05:56.924Z,33.60
2017-07-29T17:08:24.176Z,34.80
2017-07-29T17:10:52.112Z,35.50
2017-07-29T17:13:18.876Z,36.00
2017-07-29T17:15:45.914Z,36.80
2017-07-29T17:18:13.709Z,38.60
2017-07-29T17:20:40.825Z,38.50
2017-07-29T17:23:08.205Z,39.80
2017-07-29T17:25:35.026Z,41.00
2017-07-29T17:28:02.183Z,41.80
2017-07-29T17:30:29.424Z,42.50
2017-07-29T17:32:56.691Z,42.60
2017-07-29T17:35:26.780Z,42.30
2017-07-29T17:37:54.184Z,41.10
2017-07-29T17:40:21.539Z,38.90
2017-07-29T17:42:48.517Z,36.50
2017-07-29T17:45:15.608Z,34.40
2017-07-29T17:47:42.989Z,32.70
2017-07-29T17:50:11.505Z,31.10
2017-07-29T17:55:15.238Z,29.20
2017-07-29T17:57:43.305Z,28.60
2017-07-29T18:00:12.409Z,28.00
2017-07-29T18:02:43.481Z,27.70
2017-07-29T18:05:11.575Z,27.40
2017-07-29T18:07:40.063Z,27.10
2017-07-29T18:10:10.713Z,26.90
2017-07-29T18:12:38.464Z,26.60
2017-07-29T18:15:06.408Z,26.20
2017-07-29T18:17:33.748Z,26.20
2017-07-29T18:20:00.623Z,26.20
2017-07-29T18:22:27.820Z,26.00
2017-07-29T18:24:54.962Z,25.90
2017-07-29T18:27:22.608Z,25.80
2017-07-29T18:29:50.124Z,25.70
2017-07-29T18:32:16.968Z,25.60
2017-07-29T18:34:46.620Z,25.50
2017-07-29T18:37:17.087Z,25.40
2017-07-29T18:39:43.900Z,25.30
2017-07-29T18:42:10.968Z,25.20
2017-07-29T18:44:38.355Z,25.10
2017-07-29T18:47:06.200Z,25.00
2017-07-29T18:49:33.616Z,24.90
2017-07-29T18:52:00.969Z,24.70
2017-07-29T18:54:27.874Z,24.60
2017-07-29T18:56:55.193Z,24.40
2017-07-29T18:59:22.261Z,24.30
2017-07-29T19:01:49.059Z,24.10
2017-07-29T19:04:15.860Z,24.00
2017-07-29T19:06:43.857Z,23.80
2017-07-29T19:09:10.763Z,23.80
2017-07-29T19:11:38.773Z,23.50
2017-07-29T19:14:06.099Z,23.50
2017-07-29T19:16:33.072Z,23.40
2017-07-29T19:19:00.145Z,23.30
2017-07-29T19:21:27.440Z,23.20
2017-07-29T19:23:54.881Z,23.10
2017-07-29T19:26:21.811Z,23.10
2017-07-29T19:28:48.932Z,22.90
2017-07-29T19:31:15.789Z,22.80
2017-07-29T19:33:43.246Z,22.80
2017-07-29T19:36:10.128Z,22.80
2017-07-29T19:38:37.905Z,22.70
2017-07-29T19:41:07.566Z,22.60
2017-07-29T19:43:34.788Z,22.50
2017-07-29T19:46:02.074Z,22.50
2017-07-29T19:48:29.544Z,22.40
2017-07-29T19:50:56.417Z,22.40
2017-07-29T19:53:23.160Z,22.40
2017-07-29T19:55:50.612Z,22.40
2017-07-29T19:58:17.462Z,22.40
2017-07-29T20:00:44.535Z,22.30
2017-07-29T20:03:11.772Z,22.20
2017-07-29T20:05:39.203Z,22.10
2017-07-29T20:08:06.485Z,22.00
2017-07-29T20:10:33.504Z,22.00
2017-07-29T20:13:00.645Z,21.90
2017-07-29T20:15:27.964Z,21.90
2017-07-29T20:17:55.208Z,21.70
2017-07-29T20:20:22.122Z,21.70
2017-07-29T20:22:48.999Z,21.60
2017-07-29T20:25:15.760Z,21.60
2017-07-29T20:27:43.108Z,21.50
2017-07-29T20:30:12.260Z,21.50
2017-07-29T20:32:39.530Z,21.50
2017-07-29T20:35:07.517Z,21.50
2017-07-29T20:37:34.812Z,21.50
2017-07-29T20:40:02.166Z,21.40
2017-07-29T20:42:29.297Z,21.40
2017-07-29T20:44:56.415Z,21.30
2017-07-29T20:47:23.800Z,21.30
2017-07-29T20:49:51.207Z,21.30
2017-07-29T20:52:18.012Z,21.30
2017-07-29T20:54:45.148Z,21.20
2017-07-29T20:57:12.353Z,21.10
2017-07-29T20:59:39.832Z,21.10
2017-07-29T21:02:07.190Z,21.00
2017-07-29T21:04:34.002Z,21.00
2017-07-29T21:07:00.789Z,21.00
2017-07-29T21:09:27.555Z,21.00
2017-07-29T21:11:54.727Z,20.90
2017-07-29T21:14:22.725Z,20.90
2017-07-29T21:16:49.973Z,20.90
2017-07-29T21:19:17.205Z,20.90
2017-07-29T21:21:44.545Z,21.00
2017-07-29T21:24:11.543Z,20.90
2017-07-29T21:26:38.780Z,20.90
2017-07-29T21:29:06.031Z,20.80
2017-07-29T21:31:32.902Z,20.70
2017-07-29T21:33:59.710Z,20.70
2017-07-29T21:36:26.537Z,20.70
2017-07-29T21:38:53.507Z,20.70
2017-07-29T21:41:20.998Z,20.70
2017-07-29T21:43:47.856Z,20.70
2017-07-29T21:46:15.176Z,20.60
2017-07-29T21:51:16.347Z,20.60
2017-07-29T21:53:44.430Z,20.50
2017-07-29T21:56:11.362Z,20.50
2017-07-29T21:58:38.508Z,20.50
2017-07-29T22:01:05.854Z,20.40
2017-07-29T22:03:33.290Z,20.40
2017-07-29T22:06:00.618Z,20.40
2017-07-29T22:08:27.588Z,20.40
2017-07-29T22:10:54.465Z,20.40
2017-07-29T22:13:21.267Z,20.30
2017-07-29T22:15:48.059Z,20.30
2017-07-29T22:18:15.358Z,20.30
2017-07-29T22:20:42.838Z,20.30
2017-07-29T22:23:09.680Z,20.20
2017-07-29T22:25:36.823Z,20.20
2017-07-29T22:28:04.088Z,20.20
2017-07-29T22:30:31.461Z,20.20
2017-07-29T22:32:58.818Z,20.10
2017-07-29T22:35:25.754Z,20.20
2017-07-29T22:37:52.983Z,20.10
2017-07-29T22:40:19.775Z,20.10
2017-07-29T22:42:46.578Z,20.10
2017-07-29T22:45:13.409Z,20.10
2017-07-29T22:47:40.832Z,20.00
2017-07-29T22:50:07.726Z,20.00
2017-07-29T22:52:34.892Z,20.00
2017-07-29T22:55:02.330Z,20.00
2017-07-29T22:57:32.002Z,20.00
2017-07-29T22:59:59.725Z,20.00
2017-07-29T23:02:27.044Z,20.00
2017-07-29T23:04:54.013Z,20.00
2017-07-29T23:07:22.886Z,20.00
2017-07-29T23:09:49.653Z,20.00
2017-07-29T23:12:16.460Z,19.90
2017-07-29T23:14:44.056Z,19.90
2017-07-29T23:17:10.765Z,19.90
2017-07-29T23:19:37.533Z,19.80
2017-07-29T23:22:04.518Z,19.80
2017-07-29T23:24:31.764Z,19.80
2017-07-29T23:26:59.945Z,19.70
2017-07-29T23:29:28.972Z,19.70
2017-07-29T23:31:56.023Z,19.70
